createdAt,value
2022-11-26T00:02:26.487Z,5.40
2022-11-26T00:04:55.441Z,5.50
2022-11-26T00:07:27.801Z,5.40
2022-11-26T00:09:56.669Z,5.40
2022-11-26T00:12:34.551Z,5.40
2022-11-26T00:15:28.229Z,5.40
2022-11-26T00:17:56.002Z,5.50
2022-11-26T00:20:30.520Z,5.40
2022-11-26T00:23:01.415Z,5.40
2022-11-26T00:25:40.253Z,5.40
2022-11-26T00:28:32.172Z,5.40
2022-11-26T00:31:13.262Z,5.40
2022-11-26T00:33:40.133Z,5.40
2022-11-26T00:36:19.915Z,5.50
2022-11-26T00:38:52.072Z,5.50
2022-11-26T00:41:24.908Z,5.60
2022-11-26T00:43:51.820Z,5.60
2022-11-26T00:46:21.910Z,5.60
2022-11-26T00:48:48.958Z,5.60
2022-11-26T00:51:27.152Z,5.60
2022-11-26T00:53:56.437Z,5.70
2022-11-26T00:56:23.457Z,5.60
2022-11-26T00:58:51.138Z,5.70
2022-11-26T01:01:25.787Z,5.60
2022-11-26T01:03:53.235Z,5.60
2022-11-26T01:06:27.620Z,5.60
2022-11-26T01:08:54.481Z,5.70
2022-11-26T01:11:23.737Z,5.60
2022-11-26T01:13:53.483Z,5.60
2022-11-26T01:16:30.319Z,5.60
2022-11-26T01:19:02.264Z,5.60
2022-11-26T01:21:31.398Z,5.60
2022-11-26T01:23:58.257Z,5.70
2022-11-26T01:26:28.981Z,5.70
2022-11-26T01:28:56.186Z,5.60
2022-11-26T01:31:27.748Z,5.70
2022-11-26T01:33:55.081Z,5.60
2022-11-26T01:36:36.449Z,5.60
2022-11-26T01:39:10.837Z,5.50
2022-11-26T01:42:07.327Z,5.50
2022-11-26T01:44:36.855Z,5.50
2022-11-26T01:47:30.402Z,5.50
2022-11-26T01:50:28.624Z,5.50
2022-11-26T01:53:22.052Z,5.40
2022-11-26T01:55:53.898Z,5.40
2022-11-26T01:58:28.287Z,5.40
2022-11-26T02:00:55.496Z,5.40
2022-11-26T02:03:23.859Z,5.50
2022-11-26T02:06:05.776Z,5.50
2022-11-26T02:08:34.464Z,5.50
2022-11-26T02:11:18.755Z,5.50
2022-11-26T02:13:48.749Z,5.50
2022-11-26T02:16:48.063Z,5.50
2022-11-26T02:19:53.181Z,5.50
2022-11-26T02:22:50.149Z,5.50
2022-11-26T02:26:00.629Z,5.60
2022-11-26T02:29:05.597Z,5.60
2022-11-26T02:31:56.336Z,5.60
2022-11-26T02:34:54.258Z,5.60
2022-11-26T02:37:35.188Z,5.60
2022-11-26T02:40:02.025Z,5.60
2022-11-26T02:42:33.575Z,5.60
2022-11-26T02:45:10.882Z,5.60
2022-11-26T02:47:41.491Z,5.60
2022-11-26T02:50:29.911Z,5.60
2022-11-26T02:52:58.852Z,5.60
2022-11-26T02:55:30.983Z,5.60
2022-11-26T02:57:58.337Z,5.60
2022-11-26T03:00:25.445Z,5.60
2022-11-26T03:03:08.713Z,5.60
2022-11-26T03:05:39.170Z,5.70
2022-11-26T03:08:07.568Z,5.70
2022-11-26T03:10:34.741Z,5.70
2022-11-26T03:13:01.599Z,5.70
2022-11-26T03:15:28.728Z,5.80
2022-11-26T03:17:55.562Z,5.70
2022-11-26T03:20:22.374Z,5.70
2022-11-26T03:22:49.464Z,5.80
2022-11-26T03:25:16.499Z,5.80
2022-11-26T03:27:43.418Z,5.80
2022-11-26T03:30:10.703Z,5.80
2022-11-26T03:32:37.651Z,5.80
2022-11-26T03:35:05.413Z,5.70
2022-11-26T03:37:32.288Z,5.70
2022-11-26T03:39:59.369Z,5.70
2022-11-26T03:42:26.494Z,5.70
2022-11-26T03:44:53.564Z,5.70
2022-11-26T03:47:20.925Z,5.70
2022-11-26T03:49:47.747Z,5.70
2022-11-26T03:52:14.670Z,5.70
2022-11-26T03:54:41.510Z,5.70
2022-11-26T03:57:08.376Z,5.70
2022-11-26T03:59:35.193Z,5.70
2022-11-26T04:02:02.671Z,5.70
2022-11-26T04:04:29.803Z,5.70
2022-11-26T04:06:56.755Z,5.70
2022-11-26T04:09:24.124Z,5.70
2022-11-26T04:11:51.029Z,5.70
2022-11-26T04:14:19.591Z,5.70
2022-11-26T04:16:46.677Z,5.70
2022-11-26T04:19:13.608Z,5.80
2022-11-26T04:21:40.606Z,5.80
2022-11-26T04:24:08.174Z,5.80
2022-11-26T04:26:35.063Z,5.80
2022-11-26T04:29:02.096Z,5.80
2022-11-26T04:31:28.920Z,5.90
2022-11-26T04:33:55.801Z,5.90
2022-11-26T04:36:23.558Z,5.90
2022-11-26T04:38:50.374Z,5.80
2022-11-26T04:41:17.276Z,5.90
2022-11-26T04:43:44.163Z,5.90
2022-11-26T04:46:11.033Z,5.90
2022-11-26T04:48:37.940Z,5.90
2022-11-26T04:51:04.853Z,5.80
2022-11-26T04:53:31.683Z,5.80
2022-11-26T04:55:58.536Z,5.90
2022-11-26T04:58:25.324Z,5.90
2022-11-26T05:00:52.453Z,5.90
2022-11-26T05:03:19.861Z,5.90
2022-11-26T05:05:47.219Z,5.90
2022-11-26T05:08:14.348Z,5.90
2022-11-26T05:10:41.644Z,5.90
2022-11-26T05:13:08.850Z,5.80
2022-11-26T05:15:35.642Z,5.80
2022-11-26T05:18:02.489Z,5.80
2022-11-26T05:20:29.360Z,5.90
2022-11-26T05:22:56.133Z,5.80
2022-11-26T05:25:22.967Z,5.80
2022-11-26T05:27:49.740Z,5.70
2022-11-26T05:30:16.649Z,5.70
2022-11-26T05:32:43.431Z,5.70
2022-11-26T05:35:10.470Z,5.70
2022-11-26T05:37:37.442Z,5.60
2022-11-26T05:40:05.843Z,5.50
2022-11-26T05:42:32.685Z,5.50
2022-11-26T05:44:59.505Z,5.40
2022-11-26T05:47:26.452Z,5.40
2022-11-26T05:49:53.477Z,5.40
2022-11-26T05:52:20.913Z,5.40
2022-11-26T05:54:47.847Z,5.40
2022-11-26T05:57:14.897Z,5.40
2022-11-26T05:59:41.877Z,5.40
2022-11-26T06:02:08.780Z,5.50
2022-11-26T06:04:35.725Z,5.50
2022-11-26T06:07:02.627Z,5.50
2022-11-26T06:09:29.415Z,5.50
2022-11-26T06:11:56.181Z,5.60
2022-11-26T06:14:23.056Z,5.60
2022-11-26T06:16:49.975Z,5.60
2022-11-26T06:19:16.889Z,5.60
2022-11-26T06:21:43.768Z,5.60
2022-11-26T06:24:11.100Z,5.60
2022-11-26T06:26:37.996Z,5.50
2022-11-26T06:29:04.859Z,5.60
2022-11-26T06:31:32.678Z,5.50
2022-11-26T06:33:59.815Z,5.50
2022-11-26T06:36:26.733Z,5.50
2022-11-26T06:38:53.551Z,5.50
2022-11-26T06:41:20.343Z,5.50
2022-11-26T06:43:47.123Z,5.50
2022-11-26T06:46:14.156Z,5.50
2022-11-26T06:48:41.253Z,5.50
2022-11-26T06:51:11.993Z,5.50
2022-11-26T06:53:38.834Z,5.50
2022-11-26T06:56:17.762Z,5.50
2022-11-26T06:58:46.915Z,5.50
2022-11-26T07:01:22.384Z,5.60
2022-11-26T07:03:49.493Z,5.70
2022-11-26T07:06:19.850Z,5.70
2022-11-26T07:08:47.892Z,5.70
2022-11-26T07:11:15.736Z,5.80
2022-11-26T07:13:42.931Z,5.70
2022-11-26T07:16:10.409Z,5.70
2022-11-26T07:18:37.449Z,5.70
2022-11-26T07:21:10.244Z,5.80
2022-11-26T07:23:37.098Z,5.80
2022-11-26T07:26:06.261Z,5.80
2022-11-26T07:28:34.547Z,5.80
2022-11-26T07:31:04.242Z,5.90
2022-11-26T07:33:31.218Z,5.90
2022-11-26T07:36:04.041Z,5.90
2022-11-26T07:38:31.564Z,5.90
2022-11-26T07:41:09.415Z,5.90
2022-11-26T07:43:39.084Z,6.00
2022-11-26T07:46:08.694Z,6.10
2022-11-26T07:48:36.561Z,6.00
2022-11-26T07:51:03.700Z,6.00
2022-11-26T07:53:36.364Z,6.00
2022-11-26T07:56:06.839Z,6.00
2022-11-26T07:58:33.746Z,6.30
2022-11-26T08:01:29.845Z,6.40
2022-11-26T08:03:58.519Z,6.40
2022-11-26T08:06:29.249Z,6.40
2022-11-26T08:08:56.244Z,6.50
2022-11-26T08:11:27.682Z,6.70
2022-11-26T08:13:58.493Z,6.90
2022-11-26T08:16:28.464Z,7.00
2022-11-26T08:18:58.360Z,7.10
2022-11-26T08:21:25.616Z,7.00
2022-11-26T08:23:54.008Z,6.90
2022-11-26T08:26:27.510Z,6.90
2022-11-26T08:28:59.508Z,6.90
2022-11-26T08:31:27.886Z,6.90
2022-11-26T08:33:59.839Z,7.10
2022-11-26T08:36:29.533Z,7.20
2022-11-26T08:38:57.046Z,7.20
2022-11-26T08:41:23.915Z,7.20
2022-11-26T08:44:06.200Z,7.20
2022-11-26T08:46:35.383Z,7.20
2022-11-26T08:49:02.391Z,7.20
2022-11-26T08:51:29.316Z,7.10
2022-11-26T08:53:56.200Z,7.00
2022-11-26T08:56:23.165Z,7.00
2022-11-26T08:58:51.373Z,7.10
2022-11-26T09:01:21.836Z,7.00
2022-11-26T09:03:54.473Z,7.10
2022-11-26T09:06:23.938Z,7.20
2022-11-26T09:09:09.813Z,7.40
2022-11-26T09:12:04.556Z,7.40
2022-11-26T09:14:38.372Z,7.60
2022-11-26T09:17:06.225Z,7.70
2022-11-26T09:19:33.625Z,7.90
2022-11-26T09:22:01.384Z,8.00
2022-11-26T09:24:28.455Z,8.10
2022-11-26T09:26:55.318Z,8.00
2022-11-26T09:29:23.579Z,7.90
2022-11-26T09:34:39.241Z,8.20
2022-11-26T09:37:06.599Z,8.20
2022-11-26T09:39:33.540Z,8.30
2022-11-26T09:42:08.232Z,8.20
2022-11-26T09:45:11.722Z,8.10
2022-11-26T09:47:45.595Z,8.10
2022-11-26T09:50:15.495Z,8.00
2022-11-26T09:52:59.678Z,8.30
2022-11-26T09:55:40.469Z,8.40
2022-11-26T09:58:26.927Z,8.40
2022-11-26T10:00:57.549Z,8.60
2022-11-26T10:03:37.023Z,8.60
2022-11-26T10:06:46.242Z,8.70
2022-11-26T10:09:30.931Z,8.50
2022-11-26T10:12:26.118Z,8.30
2022-11-26T10:15:17.353Z,8.20
2022-11-26T10:17:53.281Z,8.20
2022-11-26T10:20:37.843Z,8.30
2022-11-26T10:23:11.506Z,8.30
2022-11-26T10:25:58.471Z,8.30
2022-11-26T10:28:45.675Z,8.50
2022-11-26T10:31:33.920Z,8.60
2022-11-26T10:34:12.507Z,8.50
2022-11-26T10:36:41.827Z,8.50
2022-11-26T10:39:16.035Z,8.60
2022-11-26T10:41:43.561Z,8.50
2022-11-26T10:44:29.994Z,8.50
2022-11-26T10:46:58.211Z,8.50
2022-11-26T10:49:30.870Z,8.40
2022-11-26T10:52:04.191Z,8.30
2022-11-26T10:54:37.724Z,8.30
2022-11-26T10:57:19.044Z,8.50
2022-11-26T10:59:52.261Z,8.30
2022-11-26T11:02:39.065Z,8.30
2022-11-26T11:05:09.023Z,8.20
2022-11-26T11:07:38.576Z,7.80
2022-11-26T11:10:11.861Z,7.90
2022-11-26T11:12:45.387Z,8.00
2022-11-26T11:15:18.118Z,8.00
2022-11-26T11:17:47.474Z,8.10
2022-11-26T11:20:17.420Z,8.20
2022-11-26T11:22:45.690Z,8.30
2022-11-26T11:25:25.858Z,8.40
2022-11-26T11:27:55.407Z,8.50
2022-11-26T11:30:34.017Z,8.60
2022-11-26T11:33:22.611Z,8.70
2022-11-26T11:36:01.345Z,8.80
2022-11-26T11:38:46.511Z,8.80
2022-11-26T11:41:37.423Z,8.90
2022-11-26T11:44:19.537Z,9.00
2022-11-26T11:47:26.774Z,8.90
2022-11-26T11:50:18.744Z,8.90
2022-11-26T11:53:17.838Z,8.80
2022-11-26T11:56:08.880Z,8.70
2022-11-26T11:59:00.176Z,8.60
2022-11-26T12:02:05.452Z,8.60
2022-11-26T12:05:02.332Z,8.50
2022-11-26T12:07:41.154Z,8.40
2022-11-26T12:10:35.353Z,8.30
2022-11-26T12:13:06.136Z,8.30
2022-11-26T12:15:46.420Z,8.40
2022-11-26T12:18:39.974Z,8.40
2022-11-26T12:21:14.110Z,8.50
2022-11-26T12:24:04.937Z,8.40
2022-11-26T12:26:39.977Z,8.30
2022-11-26T12:29:29.616Z,8.30
2022-11-26T12:32:16.364Z,8.30
2022-11-26T12:34:49.436Z,8.30
2022-11-26T12:37:32.585Z,8.30
2022-11-26T12:40:37.985Z,8.50
2022-11-26T12:43:30.070Z,8.30
2022-11-26T12:46:16.954Z,8.30
2022-11-26T12:49:06.623Z,8.30
2022-11-26T12:52:18.528Z,8.40
2022-11-26T12:55:22.296Z,8.40
2022-11-26T12:57:57.305Z,8.30
2022-11-26T13:00:35.709Z,8.20
2022-11-26T13:03:06.236Z,8.20
2022-11-26T13:05:56.164Z,8.10
2022-11-26T13:08:34.703Z,8.10
2022-11-26T13:11:14.327Z,8.20
2022-11-26T13:13:58.369Z,8.20
2022-11-26T13:16:46.914Z,8.30
2022-11-26T13:19:37.289Z,8.30
2022-11-26T13:22:13.023Z,8.30
2022-11-26T13:25:16.507Z,8.40
2022-11-26T13:27:55.206Z,8.40
2022-11-26T13:30:35.073Z,8.50
2022-11-26T13:33:41.073Z,8.50
2022-11-26T13:36:23.965Z,8.70
2022-11-26T13:39:11.758Z,8.70
2022-11-26T13:42:04.016Z,8.70
2022-11-26T13:45:01.020Z,8.70
2022-11-26T13:47:35.713Z,8.70
2022-11-26T13:50:30.911Z,8.70
2022-11-26T13:53:05.359Z,8.80
2022-11-26T13:55:48.587Z,8.90
2022-11-26T13:58:25.536Z,9.10
2022-11-26T14:00:52.464Z,10.20
2022-11-26T14:03:55.372Z,12.20
2022-11-26T14:06:22.951Z,12.80
2022-11-26T14:08:52.758Z,12.90
2022-11-26T14:11:45.577Z,13.80
2022-11-26T14:14:24.545Z,13.70
2022-11-26T14:17:08.892Z,13.10
2022-11-26T14:19:41.084Z,12.30
2022-11-26T14:22:31.874Z,11.70
2022-11-26T14:25:08.087Z,12.20
2022-11-26T14:27:49.799Z,13.10
2022-11-26T14:30:27.485Z,12.90
2022-11-26T14:33:04.578Z,12.10
2022-11-26T14:35:35.710Z,11.00
2022-11-26T14:38:05.934Z,11.00
2022-11-26T14:40:36.955Z,11.10
2022-11-26T14:43:20.048Z,10.80
2022-11-26T14:46:14.168Z,10.40
2022-11-26T14:48:47.265Z,9.80
2022-11-26T14:51:23.296Z,9.40
2022-11-26T14:53:51.253Z,9.00
2022-11-26T14:56:19.954Z,8.70
2022-11-26T14:58:54.164Z,8.60
2022-11-26T15:01:27.279Z,8.40
2022-11-26T15:04:04.982Z,8.20
2022-11-26T15:06:42.720Z,7.90
2022-11-26T15:09:21.650Z,7.80
2022-11-26T15:12:14.902Z,7.50
2022-11-26T15:14:47.595Z,7.10
2022-11-26T15:17:17.880Z,7.00
2022-11-26T15:19:45.696Z,7.00
2022-11-26T15:22:32.589Z,6.70
2022-11-26T15:24:59.503Z,6.40
2022-11-26T15:27:36.263Z,6.30
2022-11-26T15:30:17.226Z,6.20
2022-11-26T15:32:44.085Z,6.10
2022-11-26T15:35:15.243Z,5.90
2022-11-26T15:37:42.271Z,5.80
2022-11-26T15:40:24.166Z,5.90
2022-11-26T15:43:00.978Z,5.70
2022-11-26T15:45:41.858Z,5.60
2022-11-26T15:48:29.820Z,5.40
2022-11-26T15:51:15.737Z,5.30
2022-11-26T15:53:47.985Z,5.20
2022-11-26T15:56:24.322Z,5.10
2022-11-26T15:59:05.778Z,5.00
2022-11-26T16:01:35.585Z,4.80
2022-11-26T16:04:06.454Z,4.70
2022-11-26T16:06:40.291Z,4.60
2022-11-26T16:09:13.548Z,4.40
2022-11-26T16:11:58.606Z,4.40
2022-11-26T16:14:35.190Z,4.20
2022-11-26T16:17:10.890Z,4.10
2022-11-26T16:19:54.689Z,4.00
2022-11-26T16:22:28.338Z,4.00
2022-11-26T16:25:16.243Z,4.00
2022-11-26T16:27:49.152Z,3.90
2022-11-26T16:30:17.892Z,3.90
2022-11-26T16:32:44.714Z,3.80
2022-11-26T16:35:37.554Z,3.80
2022-11-26T16:37:58.878Z,3.80
2022-11-26T16:40:26.662Z,3.80
2022-11-26T16:42:53.639Z,3.70
2022-11-26T16:45:20.553Z,3.60
2022-11-26T16:47:51.904Z,3.50
2022-11-26T16:50:25.162Z,3.40
2022-11-26T16:52:54.148Z,3.40
2022-11-26T16:55:25.425Z,3.40
2022-11-26T16:57:57.012Z,3.40
2022-11-26T17:00:26.161Z,3.40
2022-11-26T17:02:54.154Z,3.40
2022-11-26T17:05:22.570Z,3.30
2022-11-26T17:07:55.570Z,3.20
2022-11-26T17:10:29.133Z,3.20
2022-11-26T17:12:57.020Z,3.20
2022-11-26T17:15:24.247Z,3.20
2022-11-26T17:17:54.613Z,3.20
2022-11-26T17:20:27.237Z,3.20
2022-11-26T17:22:54.703Z,3.20
2022-11-26T17:25:21.596Z,3.20
2022-11-26T17:27:48.705Z,3.20
2022-11-26T17:30:23.884Z,3.20
2022-11-26T17:32:51.641Z,3.10
2022-11-26T17:35:18.824Z,3.10
2022-11-26T17:37:46.005Z,3.00
2022-11-26T17:40:23.686Z,3.00
2022-11-26T17:42:51.174Z,2.90
2022-11-26T17:45:19.270Z,2.80
2022-11-26T17:47:46.380Z,2.70
2022-11-26T17:50:26.013Z,2.70
2022-11-26T17:52:54.491Z,2.60
2022-11-26T17:55:24.193Z,2.60
2022-11-26T17:57:51.510Z,2.60
2022-11-26T18:00:22.877Z,2.50
2022-11-26T18:02:49.871Z,2.40
2022-11-26T18:05:16.893Z,2.40
2022-11-26T18:07:43.763Z,2.40
2022-11-26T18:10:14.395Z,2.40
2022-11-26T18:12:42.188Z,2.30
2022-11-26T18:15:09.394Z,2.30
2022-11-26T18:17:36.285Z,2.30
2022-11-26T18:20:03.285Z,2.30
2022-11-26T18:22:30.321Z,2.30
2022-11-26T18:24:58.405Z,2.20
2022-11-26T18:27:29.157Z,2.10
2022-11-26T18:29:56.152Z,2.00
2022-11-26T18:32:23.547Z,2.00
2022-11-26T18:34:50.931Z,1.90
2022-11-26T18:37:18.660Z,1.90
2022-11-26T18:39:45.731Z,1.90
2022-11-26T18:45:00.952Z,2.00
2022-11-26T18:47:27.826Z,2.00
2022-11-26T18:49:54.700Z,2.10
2022-11-26T18:52:21.487Z,2.10
2022-11-26T18:54:48.302Z,1.90
2022-11-26T18:57:15.290Z,1.90
2022-11-26T18:59:42.575Z,2.00
2022-11-26T19:02:11.100Z,2.00
2022-11-26T19:04:39.204Z,2.00
2022-11-26T19:07:06.089Z,2.00
2022-11-26T19:09:33.081Z,2.00
2022-11-26T19:12:00.375Z,2.00
2022-11-26T19:14:27.257Z,2.00
2022-11-26T19:16:54.233Z,2.00
2022-11-26T19:19:21.398Z,1.90
2022-11-26T19:21:49.746Z,1.80
2022-11-26T19:24:16.937Z,1.70
2022-11-26T19:26:44.290Z,1.70
2022-11-26T19:29:12.898Z,1.60
2022-11-26T19:31:40.175Z,1.60
2022-11-26T19:34:14.750Z,1.50
2022-11-26T19:36:41.579Z,1.50
2022-11-26T19:39:08.932Z,1.40
2022-11-26T19:41:35.799Z,1.40
2022-11-26T19:44:04.018Z,1.40
2022-11-26T19:46:31.437Z,1.50
2022-11-26T19:48:58.407Z,1.50
2022-11-26T19:51:27.765Z,1.50
2022-11-26T19:53:56.350Z,1.70
2022-11-26T19:56:31.495Z,1.70
2022-11-26T19:59:01.963Z,1.70
2022-11-26T20:01:34.411Z,1.60
2022-11-26T20:04:05.176Z,1.70
2022-11-26T20:06:35.038Z,1.70
2022-11-26T20:09:04.299Z,1.70
2022-11-26T20:11:31.270Z,1.80
2022-11-26T20:13:58.733Z,1.80
2022-11-26T20:16:29.841Z,1.90
2022-11-26T20:18:58.360Z,1.90
2022-11-26T20:21:30.831Z,1.90
2022-11-26T20:24:01.391Z,1.90
2022-11-26T20:26:38.663Z,1.80
2022-11-26T20:29:14.808Z,1.70
2022-11-26T20:31:48.875Z,1.60
2022-11-26T20:34:18.767Z,1.60
2022-11-26T20:36:45.838Z,1.50
2022-11-26T20:39:19.749Z,1.40
2022-11-26T20:41:47.143Z,1.30
2022-11-26T20:44:14.366Z,1.30
2022-11-26T20:46:41.992Z,1.30
2022-11-26T20:49:11.307Z,1.20
2022-11-26T20:51:39.092Z,1.20
2022-11-26T20:54:05.946Z,1.20
2022-11-26T20:56:33.241Z,1.20
2022-11-26T20:59:02.124Z,1.10
2022-11-26T21:01:29.902Z,1.10
2022-11-26T21:03:57.426Z,1.10
2022-11-26T21:06:30.190Z,1.00
2022-11-26T21:09:01.158Z,1.00
2022-11-26T21:11:29.254Z,0.90
2022-11-26T21:13:58.817Z,0.80
2022-11-26T21:16:25.869Z,0.70
2022-11-26T21:18:54.521Z,0.70
2022-11-26T21:21:23.667Z,0.70
2022-11-26T21:23:51.049Z,0.70
2022-11-26T21:26:25.077Z,0.60
2022-11-26T21:28:57.218Z,0.60
2022-11-26T21:31:25.968Z,0.60
2022-11-26T21:34:02.501Z,0.60
2022-11-26T21:36:32.036Z,0.60
2022-11-26T21:39:00.092Z,0.70
2022-11-26T21:41:27.584Z,0.70
2022-11-26T21:43:55.392Z,0.80
2022-11-26T21:46:26.286Z,0.80
2022-11-26T21:48:54.433Z,0.80
2022-11-26T21:51:23.425Z,0.70
2022-11-26T21:53:50.589Z,0.70
2022-11-26T21:56:20.569Z,0.70
2022-11-26T21:58:48.151Z,0.60
2022-11-26T22:01:34.362Z,0.60
2022-11-26T22:04:05.103Z,0.50
2022-11-26T22:06:32.101Z,0.40
2022-11-26T22:08:59.275Z,0.30
2022-11-26T22:11:29.585Z,0.40
2022-11-26T22:13:56.816Z,0.30
2022-11-26T22:16:26.073Z,0.40
2022-11-26T22:18:54.154Z,0.40
2022-11-26T22:21:29.200Z,0.50
2022-11-26T22:23:57.207Z,0.50
2022-11-26T22:26:25.281Z,0.60
2022-11-26T22:28:52.542Z,0.70
2022-11-26T22:31:22.060Z,0.70
2022-11-26T22:33:49.999Z,0.80
2022-11-26T22:36:16.830Z,0.90
2022-11-26T22:38:43.702Z,1.00
2022-11-26T22:41:13.522Z,1.00
2022-11-26T22:43:41.457Z,1.00
2022-11-26T22:46:13.547Z,1.00
2022-11-26T22:48:41.490Z,1.10
2022-11-26T22:51:09.219Z,1.10
2022-11-26T22:53:36.813Z,1.10
2022-11-26T22:56:05.386Z,1.10
2022-11-26T22:58:34.377Z,1.10
2022-11-26T23:01:09.053Z,1.10
2022-11-26T23:03:38.086Z,1.00
2022-11-26T23:06:10.742Z,1.00
2022-11-26T23:08:39.191Z,0.90
2022-11-26T23:11:16.256Z,0.80
2022-11-26T23:13:45.655Z,0.70
2022-11-26T23:16:13.032Z,0.70
2022-11-26T23:18:40.355Z,0.60
2022-11-26T23:21:14.598Z,0.40
2022-11-26T23:23:42.409Z,0.40
2022-11-26T23:26:18.464Z,0.40
2022-11-26T23:28:47.339Z,0.40
2022-11-26T23:31:21.265Z,0.40
2022-11-26T23:33:49.483Z,0.40
2022-11-26T23:36:20.434Z,0.40
2022-11-26T23:38:47.780Z,0.40
2022-11-26T23:41:15.021Z,0.30
2022-11-26T23:43:42.265Z,0.30
2022-11-26T23:46:33.039Z,0.20
2022-11-26T23:48:59.879Z,0.20
2022-11-26T23:51:30.207Z,0.20
2022-11-26T23:53:57.099Z,0.20
2022-11-26T23:56:30.048Z,0.20
2022-11-26T23:59:01.510Z,0.20
